Etusivu
METAR-TAF:

METAR-TAF

Lentoasemat :

Ford Airport

Iron Mountain / Kingsford, Michigan, Yhdysvallat

Leveyspiiri: 45-48-51N, Pituuspiiri: 088-06-32W, korkeus merenpinnasta: 360 m

Tämänhetkinen sää

Tämä raportti tehtiin 30 minuuttia sitten, kello 10.54 UTC
Tuuli 13 kn lännestä
Lämpötila 1°C
Kosteus 64%
Ilmanpaine 995 hPa
Näkyvyys: 16.1 km
selkeää

METAR: KIMT 211054Z AUTO 28013KT 10SM CLR 01/M05 A2939 RMK AO2 SLP969 T00061050

Aika: 06:24 (11:24 UTC)


TAF: puuttuu

Säähavainnot ja -ennusteet yli 4000 lentoasemalta (METAR- ja TAF-raportit).

Käytössä olevat sääasemat on merkitty karttaan keltaisilla ja punaisilla pisteillä.

Aseta hiiri pisteen päälle nähdäksesi sääaseman nimen.

Klikkaa sitten nähdäksesi säähavainnot ja -ennusteet.

Kartan vaihtaminen: klikkaa mustalla rastilla varustettuja vihreitä pisteitä, niin voit zoomata sisään; viivalla varustettua vihreää pistettä, niin voit zoomata ulos tai vihreitä nuolia, niin pääset viereisille kartoille.


METAR-TAF: